createdAt,value
2022-11-16T00:00:15.924Z,11.72
2022-11-16T00:02:42.217Z,11.73
2022-11-16T00:05:08.533Z,12.20
2022-11-16T00:07:35.107Z,12.26
2022-11-16T00:10:01.577Z,12.51
2022-11-16T00:12:27.993Z,12.08
2022-11-16T00:15:00.422Z,12.76
2022-11-16T00:17:30.635Z,13.02
2022-11-16T00:19:58.038Z,12.09
2022-11-16T00:25:13.616Z,12.67
2022-11-16T00:27:39.906Z,12.86
2022-11-16T00:30:10.392Z,13.26
2022-11-16T00:32:49.850Z,13.44
2022-11-16T00:35:16.296Z,12.67
2022-11-16T00:37:42.657Z,11.75
2022-11-16T00:40:09.869Z,11.45
2022-11-16T00:42:36.122Z,12.45
2022-11-16T00:45:02.535Z,10.85
2022-11-16T00:47:28.835Z,11.37
2022-11-16T00:49:55.100Z,12.02
2022-11-16T00:52:21.289Z,12.60
2022-11-16T00:54:47.583Z,12.99
2022-11-16T00:57:13.769Z,12.90
2022-11-16T00:59:39.983Z,12.56
2022-11-16T01:02:06.182Z,12.76
2022-11-16T01:04:32.399Z,12.91
2022-11-16T01:06:58.650Z,12.91
2022-11-16T01:09:24.888Z,12.27
2022-11-16T01:11:51.084Z,11.47
2022-11-16T01:14:17.408Z,11.24
2022-11-16T01:16:43.675Z,11.30
2022-11-16T01:19:09.881Z,12.19
2022-11-16T01:21:36.091Z,12.55
2022-11-16T01:24:02.297Z,12.91
2022-11-16T01:26:28.477Z,12.84
2022-11-16T01:28:54.681Z,12.95
2022-11-16T01:31:20.948Z,13.00
2022-11-16T01:33:47.209Z,13.14
2022-11-16T01:36:13.424Z,13.19
2022-11-16T01:38:39.638Z,12.60
2022-11-16T01:41:05.951Z,12.61
2022-11-16T01:43:32.178Z,12.79
2022-11-16T01:45:58.356Z,12.79
2022-11-16T01:48:24.670Z,11.26
2022-11-16T01:50:50.958Z,11.81
2022-11-16T01:53:17.231Z,12.34
2022-11-16T01:55:43.540Z,12.55
2022-11-16T01:58:09.801Z,12.80
2022-11-16T02:00:35.994Z,12.70
2022-11-16T02:03:02.211Z,12.79
2022-11-16T02:05:28.439Z,12.79
2022-11-16T02:07:54.725Z,12.68
2022-11-16T02:10:20.918Z,12.27
2022-11-16T02:12:47.137Z,12.19
2022-11-16T02:15:13.439Z,12.49
2022-11-16T02:17:39.717Z,11.97
2022-11-16T02:20:08.750Z,12.40
2022-11-16T02:22:38.080Z,12.39
2022-11-16T02:25:09.473Z,12.68
2022-11-16T02:27:38.965Z,12.66
2022-11-16T02:30:05.259Z,12.86
2022-11-16T02:32:31.504Z,12.84
2022-11-16T02:34:57.761Z,12.71
2022-11-16T02:37:24.004Z,12.74
2022-11-16T02:39:50.365Z,12.43
2022-11-16T02:42:16.635Z,11.97
2022-11-16T02:44:42.911Z,12.25
2022-11-16T02:47:09.149Z,12.50
2022-11-16T02:49:35.406Z,12.02
2022-11-16T02:52:01.635Z,11.90
2022-11-16T02:54:27.967Z,12.36
2022-11-16T02:56:54.289Z,12.69
2022-11-16T02:59:20.523Z,12.62
2022-11-16T03:01:46.761Z,12.64
2022-11-16T03:04:13.029Z,12.66
2022-11-16T03:06:39.329Z,12.58
2022-11-16T03:09:05.618Z,11.65
2022-11-16T03:11:31.860Z,11.97
2022-11-16T03:13:58.305Z,12.00
2022-11-16T03:16:24.642Z,12.29
2022-11-16T03:18:50.851Z,12.19
2022-11-16T03:21:17.045Z,12.24
2022-11-16T03:23:43.252Z,11.70
2022-11-16T03:26:09.464Z,11.06
2022-11-16T03:28:35.901Z,10.52
2022-11-16T03:31:02.439Z,11.12
2022-11-16T03:33:28.761Z,11.84
2022-11-16T03:35:55.126Z,11.91
2022-11-16T03:38:21.500Z,12.35
2022-11-16T03:40:48.071Z,12.19
2022-11-16T03:43:14.319Z,12.51
2022-11-16T03:45:43.122Z,12.61
2022-11-16T03:48:09.348Z,12.21
2022-11-16T03:50:35.654Z,12.27
2022-11-16T03:53:01.871Z,12.59
2022-11-16T03:55:28.140Z,12.57
2022-11-16T03:57:54.418Z,12.34
2022-11-16T04:00:20.660Z,12.23
2022-11-16T04:02:51.139Z,12.32
2022-11-16T04:05:17.409Z,12.56
2022-11-16T04:07:43.627Z,12.57
2022-11-16T04:10:09.910Z,12.24
2022-11-16T04:12:36.217Z,12.08
2022-11-16T04:15:02.509Z,10.53
2022-11-16T04:17:37.601Z,10.71
2022-11-16T04:20:03.882Z,10.84
2022-11-16T04:22:33.270Z,11.44
2022-11-16T04:24:59.538Z,11.47
2022-11-16T04:27:36.057Z,11.87
2022-11-16T04:30:02.490Z,10.78
2022-11-16T04:32:31.560Z,9.45
2022-11-16T04:35:02.350Z,9.23
2022-11-16T04:37:28.721Z,10.27
2022-11-16T04:39:54.910Z,11.16
2022-11-16T04:42:21.151Z,11.48
2022-11-16T04:44:47.428Z,11.74
2022-11-16T04:47:13.634Z,11.14
2022-11-16T04:49:39.903Z,10.63
2022-11-16T04:52:06.131Z,10.28
2022-11-16T04:54:32.344Z,9.59
2022-11-16T04:56:58.636Z,9.69
2022-11-16T04:59:24.985Z,10.89
2022-11-16T05:01:51.282Z,11.54
2022-11-16T05:04:20.034Z,11.69
2022-11-16T05:06:46.270Z,11.71
2022-11-16T05:09:12.493Z,11.54
2022-11-16T05:11:38.808Z,11.58
2022-11-16T05:14:05.164Z,11.83
2022-11-16T05:16:31.371Z,11.97
2022-11-16T05:18:57.611Z,11.80
2022-11-16T05:21:23.932Z,11.13
2022-11-16T05:23:50.320Z,11.23
2022-11-16T05:26:16.555Z,11.08
2022-11-16T05:28:42.736Z,10.94
2022-11-16T05:31:09.038Z,11.15
2022-11-16T05:33:35.305Z,11.08
2022-11-16T05:36:01.591Z,11.37
2022-11-16T05:38:27.854Z,11.34
2022-11-16T05:40:54.108Z,10.98
2022-11-16T05:43:20.337Z,10.72
2022-11-16T05:45:46.546Z,9.95
2022-11-16T05:48:12.772Z,9.66
2022-11-16T05:50:42.785Z,9.69
2022-11-16T05:53:09.521Z,8.47
2022-11-16T05:55:36.938Z,8.52
2022-11-16T05:58:04.786Z,9.51
2022-11-16T06:00:31.031Z,9.26
2022-11-16T06:02:57.323Z,9.51
2022-11-16T06:05:23.590Z,9.82
2022-11-16T06:07:49.875Z,9.76
2022-11-16T06:10:17.246Z,9.97
2022-11-16T06:12:43.708Z,9.33
2022-11-16T06:15:10.061Z,8.98
2022-11-16T06:17:36.321Z,9.43
2022-11-16T06:20:03.793Z,9.40
2022-11-16T06:22:30.968Z,9.69
2022-11-16T06:25:00.169Z,10.31
2022-11-16T06:27:26.389Z,10.37
2022-11-16T06:29:52.616Z,8.86
2022-11-16T06:32:18.780Z,8.21
2022-11-16T06:34:44.977Z,8.43
2022-11-16T06:37:13.748Z,7.72
2022-11-16T06:42:15.917Z,6.24
2022-11-16T06:44:45.689Z,6.46
2022-11-16T06:47:12.602Z,6.95
2022-11-16T06:49:41.778Z,8.13
2022-11-16T06:52:08.134Z,9.29
2022-11-16T06:54:35.660Z,9.45
2022-11-16T06:57:04.352Z,9.44
2022-11-16T06:59:30.639Z,9.41
2022-11-16T07:01:59.766Z,10.08
2022-11-16T07:04:26.168Z,10.54
2022-11-16T07:06:52.618Z,9.57
2022-11-16T07:09:18.867Z,8.98
2022-11-16T07:11:45.067Z,9.41
2022-11-16T07:14:12.648Z,8.65
2022-11-16T07:16:38.864Z,7.65
2022-11-16T07:27:29.365Z,10.07
2022-11-16T07:29:55.577Z,10.22
2022-11-16T07:32:24.549Z,10.40
2022-11-16T07:34:50.871Z,10.23
2022-11-16T10:00:18.730Z,14.12
2022-11-16T10:02:44.905Z,14.53
2022-11-16T10:10:28.690Z,15.25
2022-11-16T12:19:42.385Z,15.74
2022-11-16T12:32:55.574Z,16.39
2022-11-16T17:13:42.480Z,11.95
2022-11-16T18:01:57.610Z,8.99
2022-11-16T18:04:24.656Z,8.75
2022-11-16T18:55:27.541Z,8.58
2022-11-16T19:03:22.221Z,10.49
2022-11-16T19:08:22.921Z,10.33
2022-11-16T19:10:52.239Z,9.06
2022-11-16T19:26:41.929Z,6.41
2022-11-16T19:31:38.626Z,6.56
2022-11-16T19:34:07.615Z,8.56
2022-11-16T19:36:36.022Z,8.35
2022-11-16T19:39:02.207Z,6.95
2022-11-16T19:41:28.439Z,6.77
2022-11-16T19:43:54.894Z,8.06
2022-11-16T19:48:48.708Z,6.90
2022-11-16T19:51:14.979Z,8.15
2022-11-16T19:53:41.178Z,7.68
2022-11-16T19:56:07.483Z,7.00
2022-11-16T19:58:33.711Z,7.22
2022-11-16T20:01:02.121Z,6.95
2022-11-16T20:03:28.524Z,6.76
2022-11-16T20:05:54.768Z,6.69
2022-11-16T20:08:27.880Z,6.73
2022-11-16T20:32:20.569Z,7.58
2022-11-16T20:45:31.645Z,8.97
2022-11-16T20:47:58.994Z,7.96
2022-11-16T20:50:28.296Z,8.15
2022-11-16T21:20:26.968Z,8.71
2022-11-16T21:23:00.016Z,8.45
2022-11-16T21:25:28.079Z,9.32
2022-11-16T21:27:54.362Z,8.86
2022-11-16T21:30:20.556Z,8.63
2022-11-16T21:32:47.292Z,8.97
2022-11-16T21:35:21.425Z,9.22
2022-11-16T21:48:44.237Z,10.57
2022-11-16T22:07:15.872Z,11.70
2022-11-16T22:20:37.305Z,12.14
2022-11-16T22:31:02.620Z,11.52
2022-11-16T22:44:09.385Z,10.27
2022-11-16T22:49:18.254Z,9.12
2022-11-16T22:51:47.760Z,10.76
2022-11-16T22:54:14.470Z,10.84
2022-11-16T23:23:41.035Z,11.88
2022-11-16T23:50:24.334Z,11.20
2022-11-16T23:55:32.666Z,11.83
2022-11-16T23:58:00.549Z,11.91
